Pardeeville, Wisconsin
Current Conditions -  °F | °C
As of 10:15 AM on Saturday 22 Nov 2014 (Local Time) from KDLL Reporting Station
Haze Haze  
Wind Chill: 30°   Ceiling: 300
Heat Index: 37°   Visibility: 2.5mi
Dew Point: 35°   Wind: 10mph
Humidity: 94%   Direction: 220°SW
Pressure: 29.84"   Gusts: NA
Location:  43.54°N, 89.3°W
Report Text: KDLL 221615Z AUTO 22009KT 2 1/2SM BR OVC003 03/02 A2984 RMK AO2 T00270018
Loading
Personal Weather Stations






























Interactive Weather Map New forecast layout! Learn more

10-Day Weather Forecast

Advertisements
Track Severe Weather on mobile